Forest Falls, CA

1:38 PM PST on January 30, 2015 (GMT -0800)
North Bench | Change Station
CLOSE
Current Station
Personal Weather Station
Location: Yucaipa, CA
Elevation: 2818 ft
Nearby Weather Stations

Elev 2818 ft 34.07 °N, 117.04 °W | Updated 1 second ago

Overcast
Overcast
55.6 °F
Feels Like 55.6 °F
N
0.0
Wind Variable Wind from SE
Gusts 0.0 mph

Today
High -- | Low -- °F
--% Chance of Precip.
Yesterday
High -- | Low -- °F
Precip. -- in
6:46 AM 5:16 PM
Waxing Gibbous, 85% visible
Pressure 29.88 in
Visibility 10.0 miles
Clouds Scattered Clouds 7500 ft
Overcast 8000 ft
Dew Point 42 °F
Humidity 61%
Rainfall 0.02 in
Snow Depth Not available.
UV 1 out of 12
Pollen 6.90 out of 12
Air Quality Not available.
Flu Activity Not available.
METAR KSBD 302050Z 00000KT 10SM SCT075 OVC080 17/05 A2988

More Conditions Fewer Conditions

Pressure 29.88 in
Visibility 10.0 miles
Clouds Scattered Clouds 7500 ft
Overcast 8000 ft
Dew Point 42 °F
Humidity 61%
Rainfall 0.02 in
Snow Depth Not available.
UV 1 out of 12
Pollen 6.90 out of 12
Air Quality Not available.
Flu Activity Not available.
METAR KSBD 302050Z 00000KT 10SM SCT075 OVC080 17/05 A2988

More Conditions Fewer Conditions

10-Day Weather Forecast

Almanac

Astronomy

Jan. 30, 2015 Rise Set
Actual Time
Civil Twilight
Nautical Twilight
Astronomical Twilight
Moon
Length of Visible Light
Length of Day
Tomorrow will be .
, % of the Moon is Illuminated

Today's Extremes

State Highs State Lows

Community

WunderPhotos

Upload Photos

1,791,897 photos uploaded!

WunderBlogs® & News

Nearby

Air Quality

  Air Quality AQ Index Pollutant
Not available.

Snow Depth

Station Depth Elevation

Earthquake Activity

City Distance Mag. Time & Date
Minimum magnitude displayed is 2.5.

Coastal Water Temperatures

Place Temperature

Nearby Weather Stations